createdAt,value
2016-08-03T00:00:29.185Z,0
2016-08-03T00:01:29.450Z,0
2016-08-03T00:02:30.047Z,0
2016-08-03T00:03:29.416Z,0
2016-08-03T00:04:30.417Z,0
2016-08-03T00:05:30.716Z,0
2016-08-03T00:06:30.271Z,0
2016-08-03T00:07:31.424Z,0
2016-08-03T00:08:29.516Z,0
2016-08-03T00:09:30.336Z,0
2016-08-03T00:10:29.552Z,0
2016-08-03T00:11:29.685Z,0
2016-08-03T00:12:30.348Z,0
2016-08-03T00:13:29.132Z,0
2016-08-03T00:14:29.820Z,0
2016-08-03T00:15:30.437Z,0
2016-08-03T00:16:30.133Z,0
2016-08-03T00:17:29.435Z,0
2016-08-03T00:18:29.728Z,0
2016-08-03T00:19:31.485Z,0
2016-08-03T00:20:29.159Z,0
2016-08-03T00:21:31.306Z,0
2016-08-03T00:22:30.697Z,0
2016-08-03T00:23:32.156Z,0
2016-08-03T00:24:29.740Z,0
2016-08-03T00:25:29.967Z,0
2016-08-03T00:26:32.198Z,0
2016-08-03T00:27:30.036Z,0
2016-08-03T00:29:31.575Z,0
2016-08-03T00:30:30.720Z,0
2016-08-03T00:31:31.069Z,0
2016-08-03T00:32:29.613Z,0
2016-08-03T00:33:28.938Z,0
2016-08-03T00:34:31.988Z,0
2016-08-03T00:35:30.398Z,0
2016-08-03T00:36:30.035Z,0
2016-08-03T00:37:29.988Z,0
2016-08-03T00:38:29.799Z,0
2016-08-03T00:39:29.602Z,0
2016-08-03T00:40:31.440Z,0
2016-08-03T00:41:30.836Z,0
2016-08-03T00:42:29.623Z,0
2016-08-03T00:43:31.405Z,0
2016-08-03T00:44:31.609Z,0
2016-08-03T00:45:30.015Z,0
2016-08-03T00:46:29.539Z,0
2016-08-03T00:47:31.098Z,0
2016-08-03T00:48:31.856Z,0
2016-08-03T00:49:31.371Z,0
2016-08-03T00:50:32.073Z,0
2016-08-03T00:51:30.569Z,0
2016-08-03T00:52:30.614Z,0
2016-08-03T00:53:30.931Z,0
2016-08-03T00:54:31.090Z,0
2016-08-03T00:55:29.811Z,0
2016-08-03T00:56:29.923Z,0
2016-08-03T00:57:32.324Z,0
2016-08-03T00:58:31.602Z,0
2016-08-03T00:59:31.968Z,0
2016-08-03T01:00:32.441Z,0
2016-08-03T01:01:30.401Z,0
2016-08-03T01:02:30.909Z,0
2016-08-03T01:03:31.582Z,0
2016-08-03T01:04:32.632Z,0
2016-08-03T01:05:31.284Z,0
2016-08-03T01:06:31.617Z,0
2016-08-03T01:07:30.195Z,0
2016-08-03T01:08:30.101Z,0
2016-08-03T01:09:31.270Z,0
2016-08-03T01:10:30.917Z,0
2016-08-03T01:11:30.161Z,0
2016-08-03T01:12:32.445Z,0
2016-08-03T01:13:31.306Z,0
2016-08-03T01:14:32.612Z,0
2016-08-03T01:15:31.043Z,0
2016-08-03T01:16:30.944Z,0
2016-08-03T01:17:32.529Z,0
2016-08-03T01:18:33.178Z,0
2016-08-03T01:19:31.169Z,0
2016-08-03T01:20:31.767Z,0
2016-08-03T01:21:32.795Z,0
2016-08-03T01:22:32.784Z,0
2016-08-03T01:23:31.198Z,0
2016-08-03T01:24:31.311Z,0
2016-08-03T01:25:30.561Z,0
2016-08-03T01:26:32.504Z,0
2016-08-03T01:27:31.831Z,0
2016-08-03T01:28:31.629Z,0
2016-08-03T01:29:30.540Z,0
2016-08-03T01:30:33.137Z,0
2016-08-03T01:31:31.572Z,0
2016-08-03T01:32:32.569Z,0
2016-08-03T01:33:33.418Z,0
2016-08-03T01:34:33.007Z,0
2016-08-03T01:35:30.918Z,0
2016-08-03T01:36:31.871Z,0
2016-08-03T01:37:32.223Z,0
2016-08-03T01:38:32.509Z,0
2016-08-03T01:39:32.516Z,0
2016-08-03T01:40:31.077Z,0
2016-08-03T01:41:31.446Z,0
2016-08-03T01:42:31.926Z,0
2016-08-03T01:43:32.326Z,0
2016-08-03T01:44:33.199Z,0
2016-08-03T01:45:32.541Z,0
2016-08-03T01:46:31.394Z,0
2016-08-03T01:47:32.382Z,0
2016-08-03T01:48:31.619Z,0
2016-08-03T01:49:32.260Z,0
2016-08-03T01:50:32.551Z,0
2016-08-03T01:51:31.876Z,0
2016-08-03T01:52:32.195Z,0
2016-08-03T01:53:32.341Z,0
2016-08-03T01:54:33.268Z,0
2016-08-03T01:55:32.231Z,0
2016-08-03T01:56:32.534Z,0
2016-08-03T01:57:33.760Z,0
2016-08-03T01:58:32.965Z,0
2016-08-03T01:59:31.806Z,0
2016-08-03T02:00:31.808Z,0
2016-08-03T02:01:31.989Z,0
2016-08-03T02:02:33.532Z,0
2016-08-03T02:03:32.838Z,0
2016-08-03T02:04:31.993Z,0
2016-08-03T02:05:33.211Z,0
2016-08-03T02:06:32.177Z,0
2016-08-03T02:07:32.356Z,0
2016-08-03T02:08:32.377Z,0
2016-08-03T02:09:32.298Z,0
2016-08-03T02:10:32.804Z,0
2016-08-03T02:11:31.762Z,0
2016-08-03T02:12:32.043Z,0
2016-08-03T02:13:31.830Z,0
2016-08-03T02:14:32.696Z,0
2016-08-03T02:15:33.983Z,0
2016-08-03T02:16:32.469Z,0
2016-08-03T02:17:32.494Z,0
2016-08-03T02:18:33.996Z,0
2016-08-03T02:19:33.036Z,0
2016-08-03T02:20:34.734Z,0
2016-08-03T02:21:34.050Z,0
2016-08-03T02:22:32.974Z,0
2016-08-03T02:23:32.844Z,0
2016-08-03T02:24:34.178Z,0
2016-08-03T02:25:32.688Z,0
2016-08-03T02:26:34.740Z,0
2016-08-03T02:27:34.356Z,0
2016-08-03T02:28:33.198Z,0
2016-08-03T02:29:32.424Z,0
2016-08-03T02:30:32.832Z,0
2016-08-03T02:31:32.736Z,0
2016-08-03T02:32:32.711Z,0
2016-08-03T02:33:34.273Z,0
2016-08-03T02:34:32.647Z,0
2016-08-03T02:35:32.708Z,0
2016-08-03T02:36:34.540Z,0
2016-08-03T02:37:34.044Z,0
2016-08-03T02:38:33.870Z,0
2016-08-03T02:39:32.836Z,0
2016-08-03T02:40:34.148Z,0
2016-08-03T02:41:34.014Z,0
2016-08-03T02:42:34.991Z,0
2016-08-03T02:43:34.656Z,0
2016-08-03T02:44:35.194Z,0
2016-08-03T02:45:34.401Z,0
2016-08-03T02:46:32.787Z,0
2016-08-03T02:47:32.924Z,0
2016-08-03T02:48:33.933Z,0
2016-08-03T02:49:34.360Z,0
2016-08-03T02:50:33.401Z,0
2016-08-03T02:51:33.398Z,0
2016-08-03T02:52:34.464Z,0
2016-08-03T02:53:34.213Z,0
2016-08-03T02:54:34.624Z,0
2016-08-03T02:55:34.447Z,0
2016-08-03T02:56:34.476Z,0
2016-08-03T02:57:32.647Z,0
2016-08-03T02:58:32.875Z,0
2016-08-03T02:59:34.328Z,0
2016-08-03T03:00:35.713Z,0
2016-08-03T03:01:35.059Z,0
2016-08-03T03:02:33.114Z,0
2016-08-03T03:03:33.941Z,0
2016-08-03T03:04:34.757Z,0
2016-08-03T03:05:33.318Z,0
2016-08-03T03:06:33.250Z,0
2016-08-03T03:07:34.172Z,0
2016-08-03T03:08:34.886Z,0
2016-08-03T03:09:33.285Z,0
2016-08-03T03:10:34.500Z,4
2016-08-03T03:11:33.118Z,0
2016-08-03T03:12:35.174Z,0
2016-08-03T03:13:34.087Z,4
2016-08-03T03:14:34.369Z,4
2016-08-03T03:15:35.037Z,4
2016-08-03T03:16:35.227Z,0
2016-08-03T03:17:33.311Z,4
2016-08-03T03:18:34.373Z,4
2016-08-03T03:19:35.069Z,4
2016-08-03T03:20:33.031Z,4
2016-08-03T03:21:35.224Z,4
2016-08-03T03:22:34.458Z,8
2016-08-03T03:23:38.193Z,4
2016-08-03T03:24:35.341Z,8
2016-08-03T03:25:35.592Z,8
2016-08-03T03:26:36.531Z,8
2016-08-03T03:27:33.986Z,12
2016-08-03T03:28:34.414Z,12
2016-08-03T03:29:35.752Z,12
2016-08-03T03:30:35.180Z,12
2016-08-03T03:31:35.953Z,20
2016-08-03T03:32:34.151Z,16
2016-08-03T03:33:34.465Z,24
2016-08-03T03:34:34.613Z,28
2016-08-03T03:35:34.848Z,24
2016-08-03T03:36:35.054Z,28
2016-08-03T03:37:33.337Z,32
2016-08-03T03:38:36.102Z,36
2016-08-03T03:39:34.235Z,36
2016-08-03T03:40:37.987Z,44
2016-08-03T03:41:36.062Z,52
2016-08-03T03:42:35.091Z,60
2016-08-03T03:43:34.247Z,72
2016-08-03T03:44:34.715Z,76
2016-08-03T03:45:34.545Z,80
2016-08-03T03:46:35.688Z,84
2016-08-03T03:47:35.786Z,92
2016-08-03T03:48:34.661Z,104
2016-08-03T03:49:34.334Z,116
2016-08-03T03:50:36.008Z,124
2016-08-03T03:51:35.329Z,132
2016-08-03T03:52:34.881Z,148
2016-08-03T03:53:36.289Z,160
2016-08-03T03:54:35.026Z,180
2016-08-03T03:55:34.097Z,196
2016-08-03T03:56:34.605Z,212
2016-08-03T03:57:35.883Z,224
2016-08-03T03:58:36.916Z,252
2016-08-03T03:59:35.463Z,284
2016-08-03T04:00:35.345Z,312
2016-08-03T04:01:36.844Z,332
2016-08-03T04:02:34.234Z,352
2016-08-03T04:03:34.227Z,368
2016-08-03T04:04:34.714Z,380
2016-08-03T04:05:34.525Z,388
2016-08-03T04:06:36.580Z,412
2016-08-03T04:07:36.727Z,464
2016-08-03T04:08:35.755Z,532
2016-08-03T04:09:35.291Z,588
2016-08-03T04:10:34.595Z,620
2016-08-03T04:11:35.950Z,636
2016-08-03T04:12:34.725Z,628
2016-08-03T04:13:35.116Z,624
2016-08-03T04:15:37.477Z,632
2016-08-03T04:16:35.038Z,644
2016-08-03T04:17:34.982Z,652
2016-08-03T04:18:35.890Z,664
2016-08-03T04:19:35.919Z,688
2016-08-03T04:20:34.503Z,712
2016-08-03T04:21:35.764Z,724
2016-08-03T04:22:37.181Z,748
2016-08-03T04:23:37.539Z,772
2016-08-03T04:24:36.354Z,784
2016-08-03T04:25:37.445Z,808
2016-08-03T04:26:36.705Z,836
2016-08-03T04:27:35.793Z,848
2016-08-03T04:28:36.879Z,888
2016-08-03T04:30:35.100Z,960
2016-08-03T04:31:35.584Z,956
2016-08-03T04:32:36.471Z,920
2016-08-03T04:33:36.407Z,872
2016-08-03T04:34:37.297Z,836
2016-08-03T04:35:35.216Z,836
2016-08-03T04:36:37.080Z,896
2016-08-03T04:37:35.615Z,948
2016-08-03T04:38:35.836Z,980
2016-08-03T04:39:35.834Z,960
2016-08-03T04:40:35.478Z,932
2016-08-03T04:41:35.554Z,928
2016-08-03T04:42:36.200Z,952
2016-08-03T04:43:36.156Z,992
2016-08-03T04:45:37.426Z,1060
2016-08-03T04:46:36.134Z,1148
2016-08-03T04:47:38.201Z,1268
2016-08-03T04:48:37.557Z,1352
2016-08-03T04:49:35.569Z,1480
2016-08-03T04:50:36.890Z,1632
2016-08-03T04:51:36.553Z,1796
2016-08-03T04:52:36.072Z,1964
2016-08-03T04:53:37.144Z,2180
2016-08-03T04:54:37.239Z,2540
2016-08-03T04:55:36.661Z,2984
2016-08-03T04:56:38.901Z,3392
2016-08-03T04:57:37.394Z,3560
2016-08-03T04:58:37.086Z,3580
2016-08-03T04:59:36.816Z,3672
2016-08-03T05:00:36.877Z,3852
2016-08-03T05:01:36.752Z,3940
2016-08-03T05:02:35.920Z,3608
2016-08-03T05:03:37.234Z,2664
2016-08-03T05:04:37.358Z,2116
2016-08-03T05:05:38.226Z,2016
2016-08-03T05:06:37.238Z,2180
2016-08-03T05:07:36.949Z,2340
2016-08-03T05:08:37.612Z,2464
2016-08-03T05:09:36.999Z,2556
2016-08-03T05:10:36.627Z,2484
2016-08-03T05:11:37.464Z,2388
2016-08-03T05:12:38.172Z,2420
2016-08-03T05:13:37.318Z,2500
2016-08-03T05:14:39.338Z,2492
2016-08-03T05:15:37.053Z,2484
2016-08-03T05:16:38.032Z,2556
2016-08-03T05:17:37.255Z,2676
2016-08-03T05:18:39.249Z,2780
2016-08-03T05:19:37.840Z,2676
2016-08-03T05:20:37.088Z,2344
2016-08-03T05:21:37.694Z,2072
2016-08-03T05:22:39.020Z,1976
2016-08-03T05:23:37.964Z,2008
2016-08-03T05:24:37.899Z,2060
2016-08-03T05:25:39.074Z,2104
2016-08-03T05:26:38.563Z,2120
2016-08-03T05:27:37.669Z,2112
2016-08-03T05:28:38.137Z,2088
2016-08-03T05:29:38.564Z,2064
2016-08-03T05:30:36.465Z,2052
2016-08-03T05:31:37.967Z,2092
2016-08-03T05:32:37.545Z,2236
2016-08-03T05:33:36.833Z,2436
2016-08-03T05:34:36.832Z,2508
2016-08-03T05:35:38.398Z,2388
2016-08-03T05:36:39.266Z,2320
2016-08-03T05:37:37.885Z,2368
2016-08-03T05:38:37.449Z,2460
2016-08-03T05:39:36.667Z,2476
2016-08-03T05:40:37.658Z,2420
2016-08-03T05:41:37.550Z,2532
2016-08-03T05:42:37.286Z,2724
2016-08-03T05:43:37.615Z,2892
2016-08-03T05:44:38.778Z,3000
2016-08-03T05:45:37.136Z,3000
2016-08-03T05:46:38.387Z,3004
2016-08-03T05:47:37.427Z,3056
2016-08-03T05:48:37.356Z,3088
2016-08-03T05:49:37.886Z,3068
2016-08-03T05:50:40.020Z,3132
2016-08-03T05:51:37.055Z,3288
2016-08-03T05:52:37.433Z,3464
2016-08-03T05:53:37.340Z,3644
2016-08-03T05:54:37.679Z,3808
2016-08-03T05:55:38.159Z,3812
2016-08-03T05:56:38.297Z,3804
2016-08-03T05:57:38.641Z,3752
2016-08-03T05:58:38.172Z,3972
2016-08-03T05:59:37.683Z,4292
2016-08-03T06:00:38.940Z,4788
2016-08-03T06:01:38.018Z,5308
2016-08-03T06:02:37.418Z,5504
2016-08-03T06:03:36.641Z,5696
2016-08-03T06:04:37.515Z,5976
2016-08-03T06:05:38.355Z,6008
2016-08-03T06:06:37.794Z,5796
2016-08-03T06:07:37.562Z,5360
2016-08-03T06:08:37.589Z,4848
2016-08-03T06:09:37.126Z,4384
2016-08-03T06:10:37.379Z,4204
2016-08-03T06:11:37.943Z,4572
2016-08-03T06:12:37.599Z,5168
2016-08-03T06:13:39.328Z,5384
2016-08-03T06:14:53.542Z,5100
2016-08-03T06:15:53.078Z,5120
2016-08-03T06:16:53.087Z,5528
2016-08-03T06:17:52.070Z,5288
2016-08-03T06:18:53.669Z,5288
2016-08-03T06:19:53.557Z,5536
2016-08-03T06:20:52.323Z,6168
2016-08-03T06:21:53.195Z,6312
2016-08-03T06:22:53.238Z,6384
2016-08-03T06:23:53.146Z,6576
2016-08-03T06:24:52.882Z,6992
2016-08-03T06:25:53.087Z,7540
2016-08-03T06:26:53.566Z,7856
2016-08-03T06:27:53.315Z,7756
2016-08-03T06:28:54.092Z,7888
2016-08-03T06:29:53.514Z,8072
2016-08-03T06:30:53.750Z,8108
2016-08-03T06:31:52.945Z,8232
2016-08-03T06:32:54.295Z,8756
2016-08-03T06:33:53.294Z,9136
2016-08-03T06:34:52.978Z,9288
2016-08-03T06:35:53.257Z,9796
2016-08-03T06:36:40.256Z,10248
2016-08-03T06:37:53.288Z,10312
2016-08-03T06:38:53.194Z,10320
2016-08-03T06:39:53.183Z,10744
2016-08-03T06:40:54.362Z,11168
2016-08-03T06:41:53.132Z,11608
2016-08-03T06:42:53.810Z,11724
2016-08-03T06:43:53.268Z,12032
2016-08-03T06:44:54.097Z,13152
2016-08-03T06:45:53.288Z,13792
2016-08-03T06:46:55.720Z,13828
2016-08-03T06:47:53.996Z,14152
2016-08-03T06:48:53.301Z,14312
2016-08-03T06:49:40.615Z,14848
2016-08-03T06:50:39.121Z,15084
2016-08-03T06:51:39.350Z,14612
2016-08-03T06:52:38.987Z,13096
2016-08-03T06:53:38.309Z,12220
2016-08-03T06:54:40.092Z,12008
2016-08-03T06:55:38.937Z,11912
2016-08-03T06:56:39.284Z,12496
2016-08-03T06:57:41.105Z,14052
2016-08-03T06:58:40.261Z,15216
2016-08-03T06:59:38.912Z,16312
2016-08-03T07:00:40.633Z,17184
2016-08-03T07:01:39.690Z,15700
2016-08-03T07:02:40.145Z,13628
2016-08-03T07:03:40.232Z,12036
2016-08-03T07:04:39.773Z,11276
2016-08-03T07:05:41.083Z,11288
2016-08-03T07:06:39.101Z,11064
2016-08-03T07:07:41.193Z,10524
2016-08-03T07:08:41.000Z,10304
2016-08-03T07:09:40.045Z,10392
2016-08-03T07:10:39.840Z,10752
2016-08-03T07:11:39.158Z,10824
2016-08-03T07:12:39.054Z,11248
2016-08-03T07:13:40.474Z,11812
2016-08-03T07:14:39.977Z,13876
2016-08-03T07:15:39.777Z,15248
2016-08-03T07:16:40.483Z,15496
2016-08-03T07:17:41.230Z,16084
2016-08-03T07:18:39.828Z,16520
2016-08-03T07:19:39.186Z,17088
2016-08-03T07:20:39.736Z,17312
2016-08-03T07:21:40.679Z,17728
2016-08-03T07:22:39.816Z,18016
2016-08-03T07:23:40.300Z,17312
2016-08-03T07:24:40.708Z,18304
2016-08-03T07:25:41.910Z,19104
2016-08-03T07:26:40.267Z,19104
2016-08-03T07:27:41.803Z,15992
2016-08-03T07:28:40.310Z,14544
2016-08-03T07:29:41.729Z,14640
2016-08-03T07:30:41.410Z,15532
2016-08-03T07:31:40.378Z,16028
2016-08-03T07:32:40.425Z,17248
2016-08-03T07:33:39.953Z,16928
2016-08-03T07:34:40.843Z,17024
2016-08-03T07:35:40.946Z,16960
2016-08-03T07:36:39.187Z,15276
2016-08-03T07:37:39.830Z,13168
2016-08-03T07:38:41.386Z,12540
2016-08-03T07:39:41.273Z,12400
2016-08-03T07:40:39.722Z,12252
2016-08-03T07:41:40.282Z,11512
2016-08-03T07:42:41.698Z,10368
2016-08-03T07:43:40.403Z,10352
2016-08-03T07:44:41.012Z,9728
2016-08-03T07:45:40.398Z,9160
2016-08-03T07:46:41.408Z,9448
2016-08-03T07:47:41.966Z,9588
2016-08-03T07:48:41.465Z,9124
2016-08-03T07:49:41.943Z,9492
2016-08-03T07:50:40.431Z,9904
2016-08-03T07:51:42.278Z,10140
2016-08-03T07:52:40.723Z,10808
2016-08-03T07:53:40.955Z,11364
2016-08-03T07:54:40.367Z,11728
2016-08-03T07:55:41.376Z,12256
2016-08-03T07:56:41.917Z,12888
2016-08-03T07:57:42.131Z,13216
2016-08-03T07:58:42.387Z,13696
2016-08-03T07:59:41.701Z,14460
2016-08-03T08:00:41.694Z,14892
2016-08-03T08:01:43.086Z,15116
2016-08-03T08:02:41.637Z,15612
2016-08-03T08:03:41.137Z,15140
2016-08-03T08:04:43.634Z,14728
2016-08-03T08:05:42.687Z,14240
2016-08-03T08:06:41.077Z,13084
2016-08-03T08:07:41.572Z,13176
2016-08-03T08:08:41.274Z,14684
2016-08-03T08:09:41.146Z,16992
2016-08-03T08:10:41.067Z,17056
2016-08-03T08:11:42.792Z,16252
2016-08-03T08:12:41.352Z,15716
2016-08-03T08:13:41.093Z,16372
2016-08-03T08:14:41.520Z,17056
2016-08-03T08:15:41.533Z,17056
2016-08-03T08:16:42.546Z,16516
2016-08-03T08:17:42.105Z,16204
2016-08-03T08:18:41.641Z,16592
2016-08-03T08:19:43.503Z,17312
2016-08-03T08:20:44.430Z,16864
2016-08-03T08:21:42.386Z,15604
2016-08-03T08:22:43.231Z,14388
2016-08-03T08:23:42.385Z,14376
2016-08-03T08:24:43.803Z,14436
2016-08-03T08:25:57.732Z,16480
2016-08-03T08:26:56.362Z,17536
2016-08-03T08:27:56.594Z,17952
2016-08-03T08:28:55.904Z,17792
2016-08-03T08:29:43.611Z,17472
2016-08-03T08:31:42.261Z,17184
2016-08-03T08:32:42.801Z,15056
2016-08-03T08:33:43.192Z,13620
2016-08-03T08:34:42.118Z,13324
2016-08-03T08:35:43.890Z,12344
2016-08-03T08:36:44.094Z,11396
2016-08-03T08:37:53.507Z,10264
2016-08-03T08:38:54.588Z,9684
2016-08-03T08:39:57.235Z,9736
2016-08-03T08:40:57.777Z,10792
2016-08-03T08:41:56.094Z,11300
2016-08-03T08:42:50.381Z,11496
2016-08-03T08:43:50.329Z,12000
2016-08-03T08:44:56.599Z,12424
2016-08-03T08:46:54.544Z,12236
2016-08-03T08:47:50.335Z,12388
2016-08-03T08:48:53.719Z,12960
2016-08-03T08:49:54.938Z,14084
2016-08-03T08:50:54.256Z,14028
2016-08-03T08:51:57.014Z,13304
2016-08-03T08:52:54.110Z,14272
2016-08-03T08:53:54.496Z,16860
2016-08-03T08:54:56.743Z,19168
2016-08-03T08:55:56.427Z,20480
2016-08-03T08:56:54.894Z,19488
2016-08-03T08:57:58.453Z,17856
2016-08-03T08:58:55.219Z,16568
2016-08-03T08:59:54.063Z,15924
2016-08-03T09:01:57.014Z,18208
2016-08-03T09:02:55.554Z,18464
2016-08-03T09:03:53.935Z,17952
2016-08-03T09:04:53.764Z,19328
2016-08-03T09:05:56.539Z,20832
2016-08-03T09:06:42.617Z,21184
2016-08-03T09:07:59.163Z,21312
2016-08-03T09:08:51.290Z,21792
2016-08-03T09:09:53.286Z,22624
2016-08-03T09:10:51.157Z,22240
2016-08-03T09:11:54.095Z,20224
2016-08-03T09:12:42.926Z,18592
2016-08-03T09:13:58.377Z,17344
2016-08-03T09:14:58.216Z,17472
2016-08-03T09:16:58.205Z,17728
2016-08-03T09:17:44.334Z,19296
2016-08-03T09:19:08.132Z,22912
2016-08-03T09:19:57.544Z,23968
2016-08-03T09:20:44.824Z,24128
2016-08-03T09:21:43.693Z,24288
2016-08-03T09:22:43.605Z,25184
2016-08-03T09:23:44.395Z,26752
2016-08-03T09:24:44.347Z,29632
2016-08-03T09:25:46.170Z,32992
2016-08-03T09:26:44.364Z,35424
2016-08-03T09:27:44.308Z,36736
2016-08-03T09:28:44.399Z,36416
2016-08-03T09:29:44.570Z,33760
2016-08-03T09:30:47.167Z,33440
2016-08-03T09:31:44.029Z,33952
2016-08-03T09:32:44.711Z,33504
2016-08-03T09:33:44.594Z,33472
2016-08-03T09:35:47.327Z,33696
2016-08-03T09:36:46.930Z,34816
2016-08-03T09:37:43.954Z,38304
2016-08-03T09:38:45.804Z,42912
2016-08-03T09:39:44.447Z,48000
2016-08-03T09:40:44.819Z,47488
2016-08-03T09:41:44.817Z,49632
2016-08-03T09:42:44.556Z,43328
2016-08-03T09:43:45.010Z,41024
2016-08-03T09:44:45.353Z,54176
2016-08-03T09:45:45.370Z,40640
2016-08-03T09:46:44.291Z,27872
2016-08-03T09:47:45.560Z,27904
2016-08-03T09:48:45.428Z,30432
2016-08-03T09:49:46.528Z,36288
2016-08-03T09:50:44.990Z,39200
2016-08-03T09:51:48.531Z,35168
2016-08-03T09:52:46.176Z,35584
2016-08-03T09:53:45.519Z,35936
2016-08-03T09:54:45.911Z,35872
2016-08-03T09:55:44.453Z,33184
2016-08-03T09:56:50.417Z,35520
2016-08-03T09:57:45.022Z,35232
2016-08-03T09:58:46.570Z,37088
2016-08-03T09:59:46.715Z,42240
2016-08-03T10:00:44.913Z,42528
2016-08-03T10:01:45.378Z,45760
2016-08-03T10:02:44.906Z,50944
2016-08-03T10:03:47.640Z,53152
2016-08-03T10:04:44.834Z,50496
2016-08-03T10:05:44.939Z,57504
2016-08-03T10:06:47.349Z,50976
2016-08-03T10:08:56.979Z,57984
2016-08-03T10:09:46.525Z,78464
2016-08-03T10:11:46.166Z,83872
2016-08-03T10:12:45.887Z,104896
2016-08-03T10:13:46.331Z,77056
2016-08-03T10:14:45.153Z,54432
2016-08-03T10:15:47.552Z,62368
2016-08-03T10:16:46.980Z,56352
2016-08-03T10:17:46.902Z,52928
2016-08-03T10:18:45.027Z,38496
2016-08-03T10:19:45.997Z,26848
2016-08-03T10:20:46.234Z,20896
2016-08-03T10:21:47.038Z,16576
2016-08-03T10:22:45.961Z,17536
2016-08-03T10:23:46.895Z,19808
2016-08-03T10:24:44.963Z,21760
2016-08-03T10:25:47.689Z,25216
2016-08-03T10:26:47.625Z,26880
2016-08-03T10:27:44.766Z,27776
2016-08-03T10:28:46.884Z,31520
2016-08-03T10:29:45.844Z,32416
2016-08-03T10:30:45.962Z,29888
2016-08-03T10:31:46.582Z,29504
2016-08-03T10:32:45.980Z,28608
2016-08-03T10:33:46.739Z,28000
2016-08-03T10:34:46.166Z,30656
2016-08-03T10:35:47.026Z,33152
2016-08-03T10:36:46.117Z,35616
2016-08-03T10:37:47.102Z,38272
2016-08-03T10:38:46.996Z,43328
2016-08-03T10:39:48.469Z,44032
2016-08-03T10:40:48.615Z,36672
2016-08-03T10:41:46.245Z,38688
2016-08-03T10:42:47.070Z,41952
2016-08-03T10:44:14.659Z,49888
2016-08-03T10:44:46.125Z,48736
2016-08-03T10:46:02.184Z,43424
2016-08-03T10:48:02.121Z,53376
2016-08-03T10:50:02.147Z,48736
2016-08-03T10:50:59.865Z,45696
2016-08-03T10:51:59.518Z,32640
2016-08-03T10:52:57.828Z,34560
2016-08-03T10:53:46.782Z,34272
2016-08-03T10:54:46.759Z,24064
2016-08-03T10:55:47.613Z,20992
2016-08-03T10:56:46.919Z,22784
2016-08-03T10:57:47.659Z,25248
2016-08-03T10:58:47.551Z,24256
2016-08-03T10:59:47.590Z,21760
2016-08-03T11:00:46.198Z,20192
2016-08-03T11:01:47.416Z,18336
2016-08-03T11:02:46.512Z,19456
2016-08-03T11:03:49.978Z,20512
2016-08-03T11:04:48.104Z,20256
2016-08-03T11:05:47.436Z,18112
2016-08-03T11:06:48.161Z,17120
2016-08-03T11:07:49.202Z,15396
2016-08-03T11:08:47.624Z,16464
2016-08-03T11:09:47.229Z,21760
2016-08-03T11:10:47.096Z,29408
2016-08-03T11:11:48.850Z,32224
2016-08-03T11:12:49.403Z,33472
2016-08-03T11:13:47.521Z,35808
2016-08-03T11:14:47.161Z,37568
2016-08-03T11:15:47.042Z,37376
2016-08-03T11:16:47.476Z,35936
2016-08-03T11:17:48.415Z,34112
2016-08-03T11:18:50.330Z,31968
2016-08-03T11:19:49.699Z,30656
2016-08-03T11:20:47.411Z,30080
2016-08-03T11:21:48.804Z,29536
2016-08-03T11:22:47.515Z,28992
2016-08-03T11:23:46.777Z,28096
2016-08-03T11:24:48.684Z,26656
2016-08-03T11:25:47.048Z,25536
2016-08-03T11:26:47.919Z,25568
2016-08-03T11:27:47.559Z,25344
2016-08-03T11:28:47.340Z,24064
2016-08-03T11:29:48.567Z,22496
2016-08-03T11:30:49.215Z,20640
2016-08-03T11:31:48.754Z,19392
2016-08-03T11:32:50.050Z,18336
2016-08-03T11:33:48.945Z,17440
2016-08-03T11:34:48.016Z,16928
2016-08-03T11:35:47.232Z,16432
2016-08-03T11:36:49.106Z,15988
2016-08-03T11:37:48.298Z,15668
2016-08-03T11:38:50.435Z,14928
2016-08-03T11:39:48.910Z,14100
2016-08-03T11:40:48.670Z,13576
2016-08-03T11:41:48.607Z,13744
2016-08-03T11:42:48.009Z,14012
2016-08-03T11:43:48.730Z,15196
2016-08-03T11:44:49.180Z,16456
2016-08-03T11:45:47.660Z,18048
2016-08-03T11:46:49.263Z,19840
2016-08-03T11:47:49.576Z,21472
2016-08-03T11:48:48.455Z,22496
2016-08-03T11:49:49.965Z,23328
2016-08-03T11:50:49.075Z,24672
2016-08-03T11:51:48.372Z,25792
2016-08-03T11:52:47.872Z,25280
2016-08-03T11:53:48.765Z,24064
2016-08-03T11:54:47.602Z,24064
2016-08-03T11:55:47.455Z,25376
2016-08-03T11:56:47.948Z,25248
2016-08-03T11:57:47.741Z,23168
2016-08-03T11:58:49.713Z,20704
2016-08-03T11:59:49.298Z,19360
2016-08-03T12:00:47.844Z,17728
2016-08-03T12:01:49.673Z,15904
2016-08-03T12:02:50.040Z,15488
2016-08-03T12:03:49.448Z,15512
2016-08-03T12:04:50.719Z,15956
2016-08-03T12:05:49.486Z,19296
2016-08-03T12:06:50.826Z,24000
2016-08-03T12:07:51.710Z,25952
2016-08-03T12:08:50.601Z,25024
2016-08-03T12:09:49.964Z,23040
2016-08-03T12:10:51.408Z,20288
2016-08-03T12:11:49.816Z,18624
2016-08-03T12:12:49.853Z,19008
2016-08-03T12:13:51.117Z,20608
2016-08-03T12:14:49.283Z,20960
2016-08-03T12:15:50.897Z,23232
2016-08-03T12:16:50.668Z,24256
2016-08-03T12:17:50.114Z,23456
2016-08-03T12:18:51.845Z,21344
2016-08-03T12:19:51.309Z,18368
2016-08-03T12:20:49.804Z,15996
2016-08-03T12:21:50.670Z,13688
2016-08-03T12:22:51.260Z,12812
2016-08-03T12:23:50.654Z,13500
2016-08-03T12:24:50.437Z,15596
2016-08-03T12:25:49.630Z,17888
2016-08-03T12:26:49.216Z,18592
2016-08-03T12:27:50.308Z,18432
2016-08-03T12:28:50.754Z,18016
2016-08-03T12:29:50.030Z,16288
2016-08-03T12:30:49.794Z,15356
2016-08-03T12:31:49.758Z,14600
2016-08-03T12:32:50.657Z,12512
2016-08-03T12:33:51.652Z,12712
2016-08-03T12:34:51.152Z,14672
2016-08-03T12:35:50.694Z,16992
2016-08-03T12:36:50.024Z,16772
2016-08-03T12:37:50.142Z,16148
2016-08-03T12:38:52.923Z,16048
2016-08-03T12:39:50.530Z,15076
2016-08-03T12:40:51.264Z,12884
2016-08-03T12:41:50.645Z,12604
2016-08-03T12:42:50.110Z,12668
2016-08-03T12:43:49.655Z,11260
2016-08-03T12:44:50.629Z,10048
2016-08-03T12:45:50.622Z,9724
2016-08-03T12:46:50.975Z,10400
2016-08-03T12:47:49.667Z,11792
2016-08-03T12:48:51.320Z,14580
2016-08-03T12:49:51.519Z,17408
2016-08-03T12:50:52.391Z,18912
2016-08-03T12:51:50.762Z,17792
2016-08-03T12:52:52.471Z,15724
2016-08-03T12:53:53.105Z,15464
2016-08-03T12:54:51.410Z,15544
2016-08-03T12:55:52.336Z,16056
2016-08-03T12:56:51.421Z,17088
2016-08-03T12:57:51.697Z,16312
2016-08-03T12:58:51.243Z,14444
2016-08-03T12:59:51.753Z,14788
2016-08-03T13:00:50.458Z,15960
2016-08-03T13:01:52.167Z,15288
2016-08-03T13:02:51.230Z,14340
2016-08-03T13:03:51.273Z,13728
2016-08-03T13:04:54.232Z,12148
2016-08-03T13:05:50.751Z,11908
2016-08-03T13:06:50.269Z,12048
2016-08-03T13:07:51.906Z,12212
2016-08-03T13:08:51.828Z,12052
2016-08-03T13:09:51.343Z,12196
2016-08-03T13:10:50.697Z,13468
2016-08-03T13:11:50.621Z,14156
2016-08-03T13:12:51.216Z,13832
2016-08-03T13:13:53.169Z,13492
2016-08-03T13:14:51.325Z,13560
2016-08-03T13:15:52.127Z,14064
2016-08-03T13:16:54.223Z,14696
2016-08-03T13:17:51.203Z,14788
2016-08-03T13:18:53.039Z,14688
2016-08-03T13:19:53.155Z,14372
2016-08-03T13:20:50.830Z,12884
2016-08-03T13:21:52.252Z,11556
2016-08-03T13:22:51.355Z,11900
2016-08-03T13:23:52.543Z,12512
2016-08-03T13:24:51.293Z,12592
2016-08-03T13:25:50.877Z,13536
2016-08-03T13:26:54.249Z,15416
2016-08-03T13:27:52.760Z,17152
2016-08-03T13:28:50.632Z,17888
2016-08-03T13:29:51.207Z,17632
2016-08-03T13:30:51.169Z,16536
2016-08-03T13:31:53.360Z,15560
2016-08-03T13:32:51.973Z,15952
2016-08-03T13:33:51.738Z,16108
2016-08-03T13:34:53.732Z,15104
2016-08-03T13:35:51.906Z,13976
2016-08-03T13:36:51.957Z,13684
2016-08-03T13:37:52.636Z,12916
2016-08-03T13:38:54.876Z,12632
2016-08-03T13:39:54.663Z,13652
2016-08-03T13:40:52.257Z,14800
2016-08-03T13:41:53.036Z,14904